sensor_id;sensor_type;location;lat;lon;timestamp;pressure;altitude;pressure_sealevel;temperature;humidity
51603;BME280;37954;51.980;5.850;2022-09-21T00:01:31;102313.94;;;11.66;72.25
51603;BME280;37954;51.980;5.850;2022-09-21T00:05:42;102317.66;;;11.65;72.48
51603;BME280;37954;51.980;5.850;2022-09-21T00:09:54;102311.25;;;11.66;72.71
51603;BME280;37954;51.980;5.850;2022-09-21T00:14:11;102313.75;;;11.67;72.55
51603;BME280;37954;51.980;5.850;2022-09-21T00:18:24;102314.56;;;11.68;72.74
51603;BME280;37954;51.980;5.850;2022-09-21T00:22:36;102302.97;;;11.67;72.77
51603;BME280;37954;51.980;5.850;2022-09-21T00:26:48;102309.66;;;11.71;72.47
51603;BME280;37954;51.980;5.850;2022-09-21T00:31:02;102305.66;;;11.67;72.70
51603;BME280;37954;51.980;5.850;2022-09-21T00:35:15;102310.03;;;11.68;72.95
51603;BME280;37954;51.980;5.850;2022-09-21T00:39:27;102301.50;;;11.65;72.74
51603;BME280;37954;51.980;5.850;2022-09-21T00:43:44;102317.41;;;11.60;73.10
51603;BME280;37954;51.980;5.850;2022-09-21T00:47:57;102302.13;;;11.45;73.17
51603;BME280;37954;51.980;5.850;2022-09-21T00:52:11;102308.34;;;11.46;73.20
51603;BME280;37954;51.980;5.850;2022-09-21T00:56:25;102309.94;;;11.40;73.24
51603;BME280;37954;51.980;5.850;2022-09-21T01:00:37;102304.41;;;11.27;73.24
51603;BME280;37954;51.980;5.850;2022-09-21T01:04:54;102302.00;;;11.18;73.43
51603;BME280;37954;51.980;5.850;2022-09-21T01:09:08;102297.13;;;11.06;73.40
51603;BME280;37954;51.980;5.850;2022-09-21T01:32:00;102320.25;;;10.86;73.85
51603;BME280;37954;51.980;5.850;2022-09-21T01:36:19;102317.09;;;10.82;74.21
51603;BME280;37954;51.980;5.850;2022-09-21T01:40:37;102318.94;;;10.82;74.04
51603;BME280;37954;51.980;5.850;2022-09-21T01:44:51;102315.31;;;10.75;74.23
51603;BME280;37954;51.980;5.850;2022-09-21T01:49:12;102321.69;;;10.74;74.26
51603;BME280;37954;51.980;5.850;2022-09-21T01:53:36;102310.41;;;10.64;74.37
51603;BME280;37954;51.980;5.850;2022-09-21T01:58:18;102312.38;;;10.55;74.56
51603;BME280;37954;51.980;5.850;2022-09-21T02:02:49;102311.41;;;10.48;74.71
51603;BME280;37954;51.980;5.850;2022-09-21T02:07:01;102307.16;;;10.39;74.51
51603;BME280;37954;51.980;5.850;2022-09-21T02:11:13;102303.22;;;10.27;74.78
51603;BME280;37954;51.980;5.850;2022-09-21T02:15:48;102316.38;;;10.22;74.95
51603;BME280;37954;51.980;5.850;2022-09-21T02:20:18;102312.53;;;10.16;75.01
51603;BME280;37954;51.980;5.850;2022-09-21T02:24:40;102316.97;;;10.09;75.03
51603;BME280;37954;51.980;5.850;2022-09-21T02:33:33;102312.09;;;9.90;75.54
51603;BME280;37954;51.980;5.850;2022-09-21T02:37:52;102315.97;;;9.87;75.37
51603;BME280;37954;51.980;5.850;2022-09-21T02:42:15;102307.69;;;9.74;75.47
51603;BME280;37954;51.980;5.850;2022-09-21T02:46:37;102305.34;;;9.71;75.90
51603;BME280;37954;51.980;5.850;2022-09-21T02:50:57;102305.41;;;9.63;75.82
51603;BME280;37954;51.980;5.850;2022-09-21T02:55:12;102303.25;;;9.58;75.72
51603;BME280;37954;51.980;5.850;2022-09-21T02:59:26;102308.16;;;9.55;76.00
51603;BME280;37954;51.980;5.850;2022-09-21T03:03:38;102307.22;;;9.48;76.13
51603;BME280;37954;51.980;5.850;2022-09-21T03:07:49;102315.91;;;9.50;76.18
51603;BME280;37954;51.980;5.850;2022-09-21T03:12:01;102308.75;;;9.42;76.25
51603;BME280;37954;51.980;5.850;2022-09-21T03:16:13;102307.78;;;9.35;76.47
51603;BME280;37954;51.980;5.850;2022-09-21T03:20:24;102310.69;;;9.25;76.33
51603;BME280;37954;51.980;5.850;2022-09-21T03:24:36;102311.88;;;9.23;76.81
51603;BME280;37954;51.980;5.850;2022-09-21T03:28:57;102312.38;;;9.18;76.45
51603;BME280;37954;51.980;5.850;2022-09-21T03:33:09;102318.13;;;9.15;76.94
51603;BME280;37954;51.980;5.850;2022-09-21T03:37:21;102317.78;;;9.10;76.79
51603;BME280;37954;51.980;5.850;2022-09-21T03:41:33;102315.81;;;9.04;76.75
51603;BME280;37954;51.980;5.850;2022-09-21T03:45:46;102319.03;;;8.99;76.88
51603;BME280;37954;51.980;5.850;2022-09-21T03:49:58;102318.69;;;8.94;76.69
51603;BME280;37954;51.980;5.850;2022-09-21T03:54:10;102336.63;;;8.94;76.98
51603;BME280;37954;51.980;5.850;2022-09-21T03:58:21;102327.59;;;8.87;77.24
51603;BME280;37954;51.980;5.850;2022-09-21T04:02:34;102329.78;;;8.83;77.13
51603;BME280;37954;51.980;5.850;2022-09-21T04:06:46;102322.28;;;8.79;76.96
51603;BME280;37954;51.980;5.850;2022-09-21T04:10:57;102322.78;;;8.74;77.12
51603;BME280;37954;51.980;5.850;2022-09-21T04:15:12;102320.94;;;8.75;77.39
51603;BME280;37954;51.980;5.850;2022-09-21T04:19:24;102321.28;;;8.71;77.26
51603;BME280;37954;51.980;5.850;2022-09-21T04:23:36;102316.44;;;8.67;77.28
51603;BME280;37954;51.980;5.850;2022-09-21T04:27:47;102324.66;;;8.65;77.52
51603;BME280;37954;51.980;5.850;2022-09-21T04:31:59;102325.69;;;8.64;77.36
51603;BME280;37954;51.980;5.850;2022-09-21T04:36:10;102312.13;;;8.58;77.55
51603;BME280;37954;51.980;5.850;2022-09-21T04:40:23;102315.13;;;8.55;77.80
51603;BME280;37954;51.980;5.850;2022-09-21T04:44:34;102319.16;;;8.51;77.53
51603;BME280;37954;51.980;5.850;2022-09-21T04:48:46;102323.84;;;8.49;77.80
51603;BME280;37954;51.980;5.850;2022-09-21T04:52:58;102329.72;;;8.44;77.95
51603;BME280;37954;51.980;5.850;2022-09-21T04:57:10;102346.47;;;8.46;77.85
51603;BME280;37954;51.980;5.850;2022-09-21T05:01:22;102339.44;;;8.37;77.87
51603;BME280;37954;51.980;5.850;2022-09-21T05:05:33;102350.31;;;8.35;77.95
51603;BME280;37954;51.980;5.850;2022-09-21T05:09:45;102342.44;;;8.26;78.05
51603;BME280;37954;51.980;5.850;2022-09-21T05:14:15;102359.00;;;8.29;77.93
51603;BME280;37954;51.980;5.850;2022-09-21T05:18:27;102367.69;;;8.31;78.12
51603;BME280;37954;51.980;5.850;2022-09-21T05:22:39;102363.84;;;8.26;78.31
51603;BME280;37954;51.980;5.850;2022-09-21T05:26:51;102368.38;;;8.25;78.08
51603;BME280;37954;51.980;5.850;2022-09-21T05:31:28;102375.41;;;8.26;78.49
51603;BME280;37954;51.980;5.850;2022-09-21T05:40:10;102372.72;;;8.26;78.32
51603;BME280;37954;51.980;5.850;2022-09-21T05:44:23;102368.03;;;8.28;78.34
51603;BME280;37954;51.980;5.850;2022-09-21T05:48:45;102377.59;;;8.39;78.35
51603;BME280;37954;51.980;5.850;2022-09-21T06:06:54;102381.41;;;8.77;79.07
51603;BME280;37954;51.980;5.850;2022-09-21T06:11:06;102386.66;;;9.01;79.06
51603;BME280;37954;51.980;5.850;2022-09-21T06:15:18;102396.69;;;10.69;79.58
51603;BME280;37954;51.980;5.850;2022-09-21T06:19:29;102397.22;;;12.52;79.49
51603;BME280;37954;51.980;5.850;2022-09-21T06:23:41;102399.84;;;14.04;77.19
51603;BME280;37954;51.980;5.850;2022-09-21T06:27:52;102403.72;;;15.33;74.24
51603;BME280;37954;51.980;5.850;2022-09-21T06:32:04;102401.75;;;16.54;71.16
51603;BME280;37954;51.980;5.850;2022-09-21T06:36:16;102405.00;;;17.61;68.31
51603;BME280;37954;51.980;5.850;2022-09-21T06:40:28;102419.47;;;18.56;65.06
51603;BME280;37954;51.980;5.850;2022-09-21T06:44:40;102422.69;;;19.23;62.44
51603;BME280;37954;51.980;5.850;2022-09-21T06:48:52;102422.19;;;19.38;59.89
51603;BME280;37954;51.980;5.850;2022-09-21T06:53:04;102420.94;;;18.94;59.36
51603;BME280;37954;51.980;5.850;2022-09-21T06:57:16;102414.00;;;19.50;58.18
51603;BME280;37954;51.980;5.850;2022-09-21T07:01:28;102418.97;;;19.41;56.57
51603;BME280;37954;51.980;5.850;2022-09-21T07:05:43;102427.34;;;18.76;55.58
51603;BME280;37954;51.980;5.850;2022-09-21T07:09:56;102418.47;;;18.16;56.51
51603;BME280;37954;51.980;5.850;2022-09-21T07:14:18;102416.59;;;18.16;56.72
51603;BME280;37954;51.980;5.850;2022-09-21T07:18:29;102413.25;;;17.84;56.89
51603;BME280;37954;51.980;5.850;2022-09-21T07:22:53;102413.44;;;17.53;57.85
51603;BME280;37954;51.980;5.850;2022-09-21T07:27:05;102417.19;;;17.88;58.08
51603;BME280;37954;51.980;5.850;2022-09-21T07:31:17;102419.78;;;18.25;57.19
51603;BME280;37954;51.980;5.850;2022-09-21T07:35:28;102412.19;;;17.73;57.02
51603;BME280;37954;51.980;5.850;2022-09-21T07:39:41;102409.47;;;17.19;57.67
51603;BME280;37954;51.980;5.850;2022-09-21T07:43:53;102404.75;;;16.71;58.71
51603;BME280;37954;51.980;5.850;2022-09-21T07:48:05;102416.16;;;16.55;59.53
51603;BME280;37954;51.980;5.850;2022-09-21T07:52:19;102420.78;;;16.97;60.27
51603;BME280;37954;51.980;5.850;2022-09-21T07:56:30;102415.78;;;18.39;59.77
51603;BME280;37954;51.980;5.850;2022-09-21T08:00:42;102408.41;;;19.85;57.10
51603;BME280;37954;51.980;5.850;2022-09-21T08:04:54;102412.63;;;21.26;54.45
51603;BME280;37954;51.980;5.850;2022-09-21T08:09:06;102409.09;;;22.28;52.14
51603;BME280;37954;51.980;5.850;2022-09-21T08:13:18;102398.25;;;23.27;48.89
51603;BME280;37954;51.980;5.850;2022-09-21T08:17:30;102412.22;;;24.14;46.66
51603;BME280;37954;51.980;5.850;2022-09-21T08:21:42;102407.28;;;24.61;44.28
51603;BME280;37954;51.980;5.850;2022-09-21T08:26:04;102412.69;;;25.22;42.95
51603;BME280;37954;51.980;5.850;2022-09-21T08:30:17;102425.13;;;25.69;42.28
51603;BME280;37954;51.980;5.850;2022-09-21T08:34:28;102421.91;;;26.01;39.36
51603;BME280;37954;51.980;5.850;2022-09-21T08:38:40;102423.66;;;26.26;39.15
51603;BME280;37954;51.980;5.850;2022-09-21T08:43:02;102428.38;;;26.54;37.50
51603;BME280;37954;51.980;5.850;2022-09-21T08:47:19;102430.00;;;26.84;37.16
51603;BME280;37954;51.980;5.850;2022-09-21T08:51:35;102425.25;;;27.19;36.87
51603;BME280;37954;51.980;5.850;2022-09-21T08:55:47;102425.31;;;27.56;36.05
51603;BME280;37954;51.980;5.850;2022-09-21T09:00:00;102429.69;;;28.00;35.51
51603;BME280;37954;51.980;5.850;2022-09-21T09:09:08;102435.94;;;28.43;33.99
51603;BME280;37954;51.980;5.850;2022-09-21T09:22:46;102442.31;;;29.17;32.23
51603;BME280;37954;51.980;5.850;2022-09-21T09:31:31;102443.16;;;29.45;30.27
51603;BME280;37954;51.980;5.850;2022-09-21T09:35:47;102432.38;;;29.57;30.57
51603;BME280;37954;51.980;5.850;2022-09-21T09:40:00;102440.19;;;29.91;29.76
51603;BME280;37954;51.980;5.850;2022-09-21T09:53:12;102434.31;;;30.06;29.13
51603;BME280;37954;51.980;5.850;2022-09-21T09:57:32;102431.09;;;30.13;28.38
51603;BME280;37954;51.980;5.850;2022-09-21T10:01:45;102447.47;;;30.23;28.48
51603;BME280;37954;51.980;5.850;2022-09-21T10:05:57;102442.63;;;30.06;28.65
51603;BME280;37954;51.980;5.850;2022-09-21T10:14:55;102426.75;;;30.21;27.83
51603;BME280;37954;51.980;5.850;2022-09-21T10:19:22;102429.28;;;30.08;26.89
51603;BME280;37954;51.980;5.850;2022-09-21T10:23:36;102415.09;;;30.10;27.62
51603;BME280;37954;51.980;5.850;2022-09-21T10:27:49;102424.09;;;30.16;26.53
51603;BME280;37954;51.980;5.850;2022-09-21T10:32:04;102415.88;;;29.88;26.53
51603;BME280;37954;51.980;5.850;2022-09-21T10:36:32;102419.00;;;30.09;26.10
51603;BME280;37954;51.980;5.850;2022-09-21T10:40:44;102406.31;;;30.17;26.63
51603;BME280;37954;51.980;5.850;2022-09-21T10:45:19;102403.38;;;30.66;26.08
51603;BME280;37954;51.980;5.850;2022-09-21T10:49:32;102400.59;;;30.66;25.39
51603;BME280;37954;51.980;5.850;2022-09-21T10:53:47;102397.47;;;30.37;25.86
51603;BME280;37954;51.980;5.850;2022-09-21T10:58:12;102400.63;;;30.44;26.37
51603;BME280;37954;51.980;5.850;2022-09-21T11:06:57;102403.22;;;30.63;25.03
51603;BME280;37954;51.980;5.850;2022-09-21T11:11:27;102394.28;;;30.74;25.13
51603;BME280;37954;51.980;5.850;2022-09-21T11:15:50;102393.09;;;30.67;25.50
51603;BME280;37954;51.980;5.850;2022-09-21T11:20:22;102394.72;;;30.59;25.25
51603;BME280;37954;51.980;5.850;2022-09-21T11:24:53;102393.50;;;29.85;25.00
51603;BME280;37954;51.980;5.850;2022-09-21T11:29:11;102388.84;;;28.62;25.41
51603;BME280;37954;51.980;5.850;2022-09-21T11:33:42;102386.94;;;27.55;26.61
51603;BME280;37954;51.980;5.850;2022-09-21T11:42:41;102389.53;;;26.17;27.90
51603;BME280;37954;51.980;5.850;2022-09-21T11:47:36;102383.47;;;25.81;28.44
51603;BME280;37954;51.980;5.850;2022-09-21T11:52:16;102379.19;;;25.59;28.71
51603;BME280;37954;51.980;5.850;2022-09-21T11:56:43;102368.03;;;25.36;28.94
51603;BME280;37954;51.980;5.850;2022-09-21T12:05:30;102357.75;;;24.87;30.66
51603;BME280;37954;51.980;5.850;2022-09-21T12:14:30;102353.16;;;23.81;33.12
51603;BME280;37954;51.980;5.850;2022-09-21T12:19:25;102346.81;;;23.75;32.70
51603;BME280;37954;51.980;5.850;2022-09-21T12:23:45;102349.03;;;23.68;33.10
51603;BME280;37954;51.980;5.850;2022-09-21T12:41:50;102349.50;;;23.50;34.52
51603;BME280;37954;51.980;5.850;2022-09-21T12:46:17;102330.94;;;24.03;34.05
51603;BME280;37954;51.980;5.850;2022-09-21T12:50:51;102322.44;;;24.35;32.84
51603;BME280;37954;51.980;5.850;2022-09-21T12:55:39;102320.19;;;24.52;31.85
51603;BME280;37954;51.980;5.850;2022-09-21T13:00:02;102320.75;;;24.49;31.28
51603;BME280;37954;51.980;5.850;2022-09-21T13:08:55;102301.28;;;24.25;31.83
51603;BME280;37954;51.980;5.850;2022-09-21T13:13:38;102301.28;;;24.25;31.61
51603;BME280;37954;51.980;5.850;2022-09-21T13:18:03;102298.81;;;24.18;32.19
51603;BME280;37954;51.980;5.850;2022-09-21T13:26:40;102311.69;;;23.77;31.89
51603;BME280;37954;51.980;5.850;2022-09-21T13:31:27;102305.06;;;23.48;31.83
51603;BME280;37954;51.980;5.850;2022-09-21T13:36:01;102294.59;;;23.40;32.35
51603;BME280;37954;51.980;5.850;2022-09-21T13:44:40;102284.75;;;23.49;32.92
51603;BME280;37954;51.980;5.850;2022-09-21T13:48:53;102291.31;;;23.43;32.79
51603;BME280;37954;51.980;5.850;2022-09-21T13:53:18;102287.47;;;23.34;32.70
51603;BME280;37954;51.980;5.850;2022-09-21T13:57:39;102278.72;;;23.37;33.00
51603;BME280;37954;51.980;5.850;2022-09-21T14:01:55;102277.06;;;23.41;32.83
51603;BME280;37954;51.980;5.850;2022-09-21T14:06:12;102276.22;;;23.40;32.33
51603;BME280;37954;51.980;5.850;2022-09-21T14:10:27;102270.16;;;23.23;32.23
51603;BME280;37954;51.980;5.850;2022-09-21T14:14:40;102272.06;;;23.12;32.37
51603;BME280;37954;51.980;5.850;2022-09-21T14:18:52;102275.28;;;22.94;32.59
51603;BME280;37954;51.980;5.850;2022-09-21T14:27:32;102276.50;;;22.61;33.08
51603;BME280;37954;51.980;5.850;2022-09-21T14:31:48;102266.25;;;22.41;33.12
51603;BME280;37954;51.980;5.850;2022-09-21T14:36:07;102270.31;;;22.34;32.87
51603;BME280;37954;51.980;5.850;2022-09-21T14:40:22;102256.56;;;22.23;32.79
51603;BME280;37954;51.980;5.850;2022-09-21T14:44:36;102262.25;;;22.17;32.91
51603;BME280;37954;51.980;5.850;2022-09-21T15:02:25;102241.25;;;21.59;33.10
51603;BME280;37954;51.980;5.850;2022-09-21T15:11:30;102237.38;;;21.54;33.41
51603;BME280;37954;51.980;5.850;2022-09-21T15:20:21;102227.19;;;21.45;33.48
51603;BME280;37954;51.980;5.850;2022-09-21T15:24:35;102219.97;;;21.34;33.48
51603;BME280;37954;51.980;5.850;2022-09-21T15:28:49;102221.94;;;21.16;34.23
51603;BME280;37954;51.980;5.850;2022-09-21T15:33:20;102222.44;;;20.87;35.21
51603;BME280;37954;51.980;5.850;2022-09-21T15:37:35;102219.53;;;20.71;35.75
51603;BME280;37954;51.980;5.850;2022-09-21T15:42:17;102218.31;;;20.62;36.09
51603;BME280;37954;51.980;5.850;2022-09-21T15:46:28;102216.88;;;20.55;36.33
51603;BME280;37954;51.980;5.850;2022-09-21T15:50:40;102212.88;;;20.40;36.34
51603;BME280;37954;51.980;5.850;2022-09-21T15:54:58;102211.41;;;20.16;37.28
51603;BME280;37954;51.980;5.850;2022-09-21T15:59:15;102219.28;;;19.96;37.64
51603;BME280;37954;51.980;5.850;2022-09-21T16:03:28;102204.78;;;19.73;38.22
51603;BME280;37954;51.980;5.850;2022-09-21T16:07:40;102202.38;;;19.60;38.58
51603;BME280;37954;51.980;5.850;2022-09-21T16:11:52;102200.66;;;19.54;38.60
51603;BME280;37954;51.980;5.850;2022-09-21T16:16:09;102208.88;;;19.59;38.83
51603;BME280;37954;51.980;5.850;2022-09-21T16:20:21;102189.41;;;19.67;38.73
51603;BME280;37954;51.980;5.850;2022-09-21T16:24:34;102198.56;;;19.61;38.86
51603;BME280;37954;51.980;5.850;2022-09-21T16:28:46;102187.88;;;19.43;39.51
51603;BME280;37954;51.980;5.850;2022-09-21T16:32:58;102192.56;;;19.31;40.31
51603;BME280;37954;51.980;5.850;2022-09-21T16:42:00;102206.91;;;19.26;40.43
51603;BME280;37954;51.980;5.850;2022-09-21T16:46:13;102203.00;;;19.05;40.90
51603;BME280;37954;51.980;5.850;2022-09-21T16:50:25;102198.97;;;19.08;40.91
51603;BME280;37954;51.980;5.850;2022-09-21T16:54:37;102195.84;;;18.88;41.88
51603;BME280;37954;51.980;5.850;2022-09-21T16:58:49;102203.00;;;18.77;42.22
51603;BME280;37954;51.980;5.850;2022-09-21T17:03:00;102202.53;;;18.57;43.14
51603;BME280;37954;51.980;5.850;2022-09-21T17:07:13;102210.41;;;18.41;43.97
51603;BME280;37954;51.980;5.850;2022-09-21T17:11:25;102207.97;;;18.17;44.90
51603;BME280;37954;51.980;5.850;2022-09-21T17:15:40;102219.78;;;17.99;45.71
51603;BME280;37954;51.980;5.850;2022-09-21T17:19:53;102204.50;;;17.74;46.51
51603;BME280;37954;51.980;5.850;2022-09-21T17:24:05;102214.63;;;17.56;47.38
51603;BME280;37954;51.980;5.850;2022-09-21T17:28:22;102210.09;;;17.38;47.91
51603;BME280;37954;51.980;5.850;2022-09-21T17:32:36;102207.22;;;17.21;48.35
51603;BME280;37954;51.980;5.850;2022-09-21T17:36:49;102209.13;;;17.02;49.20
51603;BME280;37954;51.980;5.850;2022-09-21T17:41:03;102216.25;;;16.85;49.53
51603;BME280;37954;51.980;5.850;2022-09-21T17:49:49;102208.00;;;16.44;51.00
51603;BME280;37954;51.980;5.850;2022-09-21T17:54:01;102212.25;;;16.33;51.62
51603;BME280;37954;51.980;5.850;2022-09-21T17:58:42;102214.00;;;16.09;52.35
51603;BME280;37954;51.980;5.850;2022-09-21T18:02:55;102205.44;;;15.87;53.13
51603;BME280;37954;51.980;5.850;2022-09-21T18:07:07;102218.63;;;15.77;53.37
51603;BME280;37954;51.980;5.850;2022-09-21T18:16:04;102212.16;;;15.53;54.27
51603;BME280;37954;51.980;5.850;2022-09-21T18:20:36;102218.94;;;15.38;54.46
51603;BME280;37954;51.980;5.850;2022-09-21T18:24:51;102223.81;;;15.22;54.95
51603;BME280;37954;51.980;5.850;2022-09-21T18:29:04;102221.56;;;15.13;55.06
51603;BME280;37954;51.980;5.850;2022-09-21T18:33:58;102221.84;;;15.05;55.72
51603;BME280;37954;51.980;5.850;2022-09-21T18:38:42;102229.34;;;15.03;55.75
51603;BME280;37954;51.980;5.850;2022-09-21T18:47:40;102217.78;;;14.82;56.33
51603;BME280;37954;51.980;5.850;2022-09-21T18:56:38;102226.19;;;14.61;56.85
51603;BME280;37954;51.980;5.850;2022-09-21T19:00:50;102223.72;;;14.53;57.24
51603;BME280;37954;51.980;5.850;2022-09-21T19:05:02;102229.16;;;14.46;57.54
51603;BME280;37954;51.980;5.850;2022-09-21T19:18:16;102235.84;;;14.17;58.49
51603;BME280;37954;51.980;5.850;2022-09-21T19:22:42;102236.88;;;14.10;58.71
51603;BME280;37954;51.980;5.850;2022-09-21T19:27:25;102236.28;;;14.01;58.93
51603;BME280;37954;51.980;5.850;2022-09-21T19:31:38;102235.63;;;13.86;60.53
51603;BME280;37954;51.980;5.850;2022-09-21T19:35:50;102245.63;;;13.99;60.35
51603;BME280;37954;51.980;5.850;2022-09-21T19:40:02;102232.94;;;13.86;60.15
51603;BME280;37954;51.980;5.850;2022-09-21T19:44:37;102246.06;;;13.82;60.37
51603;BME280;37954;51.980;5.850;2022-09-21T19:48:58;102246.66;;;13.71;60.27
51603;BME280;37954;51.980;5.850;2022-09-21T19:53:14;102224.63;;;13.54;60.32
51603;BME280;37954;51.980;5.850;2022-09-21T19:57:44;102235.63;;;13.53;60.52
51603;BME280;37954;51.980;5.850;2022-09-21T20:02:22;102236.66;;;13.45;60.64
51603;BME280;37954;51.980;5.850;2022-09-21T20:06:43;102243.09;;;13.38;60.73
51603;BME280;37954;51.980;5.850;2022-09-21T20:11:07;102242.47;;;13.29;60.98
51603;BME280;37954;51.980;5.850;2022-09-21T20:15:28;102244.50;;;13.20;60.99
51603;BME280;37954;51.980;5.850;2022-09-21T20:19:53;102244.88;;;13.11;61.31
51603;BME280;37954;51.980;5.850;2022-09-21T20:24:16;102226.53;;;13.00;61.67
51603;BME280;37954;51.980;5.850;2022-09-21T20:28:30;102229.84;;;12.88;61.89
51603;BME280;37954;51.980;5.850;2022-09-21T20:32:44;102219.25;;;12.80;61.80
51603;BME280;37954;51.980;5.850;2022-09-21T20:36:56;102223.56;;;12.75;62.00
51603;BME280;37954;51.980;5.850;2022-09-21T20:41:12;102229.16;;;12.73;62.16
51603;BME280;37954;51.980;5.850;2022-09-21T20:45:26;102231.81;;;12.67;62.06
51603;BME280;37954;51.980;5.850;2022-09-21T20:49:37;102230.56;;;12.63;62.25
51603;BME280;37954;51.980;5.850;2022-09-21T20:53:50;102215.38;;;12.55;62.69
51603;BME280;37954;51.980;5.850;2022-09-21T20:58:02;102225.72;;;12.51;62.60
51603;BME280;37954;51.980;5.850;2022-09-21T21:02:14;102231.50;;;12.48;62.74
51603;BME280;37954;51.980;5.850;2022-09-21T21:06:27;102225.84;;;12.37;63.13
51603;BME280;37954;51.980;5.850;2022-09-21T21:10:44;102228.28;;;12.25;63.19
51603;BME280;37954;51.980;5.850;2022-09-21T21:14:59;102228.03;;;12.20;63.33
51603;BME280;37954;51.980;5.850;2022-09-21T21:19:11;102223.88;;;12.17;63.77
51603;BME280;37954;51.980;5.850;2022-09-21T21:23:23;102225.50;;;12.12;63.91
51603;BME280;37954;51.980;5.850;2022-09-21T21:27:34;102229.63;;;12.08;63.91
51603;BME280;37954;51.980;5.850;2022-09-21T21:31:47;102223.53;;;11.99;63.98
51603;BME280;37954;51.980;5.850;2022-09-21T21:36:04;102218.13;;;11.93;64.22
51603;BME280;37954;51.980;5.850;2022-09-21T21:40:16;102221.59;;;11.87;64.29
51603;BME280;37954;51.980;5.850;2022-09-21T21:44:28;102232.75;;;11.83;64.12
51603;BME280;37954;51.980;5.850;2022-09-21T21:48:39;102233.97;;;11.81;64.55
51603;BME280;37954;51.980;5.850;2022-09-21T21:52:56;102227.66;;;11.74;64.26
51603;BME280;37954;51.980;5.850;2022-09-21T21:57:08;102211.00;;;11.64;64.72
51603;BME280;37954;51.980;5.850;2022-09-21T22:01:23;102217.41;;;11.63;64.85
51603;BME280;37954;51.980;5.850;2022-09-21T22:05:35;102215.31;;;11.58;64.92
51603;BME280;37954;51.980;5.850;2022-09-21T22:09:47;102218.56;;;11.54;65.05
51603;BME280;37954;51.980;5.850;2022-09-21T22:14:00;102212.94;;;11.48;65.17
51603;BME280;37954;51.980;5.850;2022-09-21T22:18:12;102211.66;;;11.44;65.55
51603;BME280;37954;51.980;5.850;2022-09-21T22:22:23;102197.88;;;11.33;65.52
51603;BME280;37954;51.980;5.850;2022-09-21T22:26:38;102206.59;;;11.35;65.38
51603;BME280;37954;51.980;5.850;2022-09-21T22:30:50;102215.50;;;11.35;65.85
51603;BME280;37954;51.980;5.850;2022-09-21T22:35:01;102203.59;;;11.23;65.96
51603;BME280;37954;51.980;5.850;2022-09-21T22:39:13;102218.72;;;11.24;66.09
51603;BME280;37954;51.980;5.850;2022-09-21T22:43:25;102202.22;;;11.12;65.88
51603;BME280;37954;51.980;5.850;2022-09-21T22:47:36;102211.69;;;11.08;66.23
51603;BME280;37954;51.980;5.850;2022-09-21T22:51:48;102212.94;;;11.06;66.22
51603;BME280;37954;51.980;5.850;2022-09-21T23:00:18;102219.53;;;11.03;65.93
51603;BME280;37954;51.980;5.850;2022-09-21T23:04:30;102202.00;;;10.93;66.34
51603;BME280;37954;51.980;5.850;2022-09-21T23:08:45;102211.75;;;10.94;66.50
51603;BME280;37954;51.980;5.850;2022-09-21T23:12:59;102211.22;;;10.84;66.75
51603;BME280;37954;51.980;5.850;2022-09-21T23:17:10;102212.88;;;10.85;66.66
51603;BME280;37954;51.980;5.850;2022-09-21T23:21:25;102199.94;;;10.73;66.91
51603;BME280;37954;51.980;5.850;2022-09-21T23:25:37;102203.66;;;10.72;66.99
51603;BME280;37954;51.980;5.850;2022-09-21T23:29:49;102207.09;;;10.66;67.03
51603;BME280;37954;51.980;5.850;2022-09-21T23:34:06;102210.13;;;10.63;67.12
51603;BME280;37954;51.980;5.850;2022-09-21T23:38:18;102199.03;;;10.52;67.46
51603;BME280;37954;51.980;5.850;2022-09-21T23:42:29;102202.28;;;10.47;67.46
51603;BME280;37954;51.980;5.850;2022-09-21T23:46:41;102205.97;;;10.46;67.63
51603;BME280;37954;51.980;5.850;2022-09-21T23:50:54;102199.31;;;10.42;67.82
51603;BME280;37954;51.980;5.850;2022-09-21T23:55:06;102197.03;;;10.39;67.67
51603;BME280;37954;51.980;5.850;2022-09-21T23:59:18;102181.00;;;10.31;67.78
